Time;durP1;ratioP1;P1;durP2;ratioP2;P2;SDS_P1;SDS_P2;PMS_P1;PMS_P2;Temp;Humidity;BMP_temperature;BMP_pressure;BME280_temperature;BME280_humidity;BME280_pressure;Samples;Min_cycle;Max_cycle;Signal;HPM_P1;HPM_P2
2021/05/07 00:00:04;;;;;;;4.95;1.70;;;6.60;99.90;;;;;;5052538;28;20072;-53
2021/05/07 00:02:30;;;;;;;6.28;1.92;;;6.60;99.90;;;;;;5052326;28;20116;-56
2021/05/07 00:04:55;;;;;;;5.57;1.52;;;6.50;99.90;;;;;;5053082;28;20132;-53
2021/05/07 00:07:21;;;;;;;5.78;1.60;;;6.40;99.90;;;;;;5052664;28;20040;-55
2021/05/07 00:09:47;;;;;;;7.45;1.42;;;6.40;99.90;;;;;;5052755;28;20453;-57
2021/05/07 00:12:12;;;;;;;5.07;1.65;;;6.30;99.90;;;;;;5052498;28;20104;-56
2021/05/07 00:14:38;;;;;;;7.68;1.70;;;6.30;99.90;;;;;;5052645;28;20033;-57
2021/05/07 00:17:04;;;;;;;4.25;1.38;;;6.30;99.90;;;;;;5052675;28;20036;-59
2021/05/07 00:19:29;;;;;;;4.13;1.58;;;6.30;99.90;;;;;;5052202;28;20020;-56
2021/05/07 00:21:55;;;;;;;3.83;1.50;;;6.30;99.90;;;;;;5052087;28;20483;-57
2021/05/07 00:24:21;;;;;;;4.13;1.55;;;6.30;99.90;;;;;;5051203;28;20033;-56
2021/05/07 00:26:46;;;;;;;6.88;1.60;;;6.20;99.90;;;;;;5052179;28;20055;-56
2021/05/07 00:29:12;;;;;;;4.45;1.40;;;6.20;99.90;;;;;;5051921;28;20517;-56
2021/05/07 00:31:38;;;;;;;6.78;1.60;;;6.20;99.90;;;;;;5052397;28;20359;-56
2021/05/07 00:34:04;;;;;;;7.30;2.20;;;6.20;99.90;;;;;;5052164;28;20502;-58
2021/05/07 00:36:29;;;;;;;2.88;1.40;;;6.10;99.90;;;;;;5052315;28;20033;-57
2021/05/07 00:38:55;;;;;;;3.00;1.20;;;6.10;99.90;;;;;;5052210;28;20036;-54
2021/05/07 00:41:21;;;;;;;5.82;1.63;;;6.00;99.90;;;;;;5051464;28;20067;-53
2021/05/07 00:43:46;;;;;;;3.53;1.40;;;6.10;99.90;;;;;;5052817;28;20082;-56
2021/05/07 00:46:12;;;;;;;4.20;1.27;;;6.10;99.90;;;;;;5051993;28;20429;-55
2021/05/07 00:48:39;;;;;;;3.00;1.58;;;6.10;99.90;;;;;;5050664;28;20033;-54
2021/05/07 00:51:05;;;;;;;5.75;1.40;;;6.10;99.90;;;;;;5051664;28;20087;-57
2021/05/07 00:53:31;;;;;;;6.05;1.63;;;6.00;99.90;;;;;;5051635;28;20064;-58
2021/05/07 00:55:56;;;;;;;4.93;1.50;;;6.00;99.90;;;;;;5050982;28;20108;-55
2021/05/07 00:58:22;;;;;;;3.70;1.25;;;6.00;99.90;;;;;;5051652;28;20033;-55
2021/05/07 01:00:52;;;;;;;5.38;1.52;;;6.00;99.90;;;;;;5051843;28;20095;-55
2021/05/07 01:03:19;;;;;;;5.75;1.40;;;6.00;99.90;;;;;;5051129;28;20029;-55
2021/05/07 01:05:45;;;;;;;3.20;1.20;;;6.00;99.90;;;;;;5050086;28;20037;-56
2021/05/07 01:08:11;;;;;;;4.03;1.30;;;6.00;99.90;;;;;;5051267;28;20036;-57
2021/05/07 01:10:37;;;;;;;5.63;1.63;;;6.00;99.90;;;;;;5051171;28;20544;-56
2021/05/07 01:13:03;;;;;;;3.70;1.40;;;6.00;99.90;;;;;;5051526;28;20037;-57
2021/05/07 01:15:28;;;;;;;5.55;1.75;;;6.00;99.90;;;;;;5051150;28;20699;-57
2021/05/07 01:17:56;;;;;;;6.38;1.80;;;6.00;99.90;;;;;;5060739;28;20041;-58
2021/05/07 01:20:33;;;;;;;8.02;1.77;;;6.00;99.90;;;;;;5058826;28;20067;-58
2021/05/07 01:23:04;;;;;;;4.70;1.50;;;6.00;99.90;;;;;;5049504;28;20040;-56
2021/05/07 01:25:33;;;;;;;6.93;1.88;;;6.00;99.90;;;;;;5050700;28;20154;-55
2021/05/07 01:28:00;;;;;;;7.97;2.03;;;6.00;99.90;;;;;;5050889;28;20120;-56
2021/05/07 01:30:28;;;;;;;5.72;1.80;;;6.00;99.90;;;;;;5051083;28;20029;-56
2021/05/07 01:32:55;;;;;;;7.28;1.83;;;5.90;99.90;;;;;;5051240;28;20479;-54
2021/05/07 01:35:23;;;;;;;5.22;1.80;;;5.90;99.90;;;;;;5050773;28;20572;-58
2021/05/07 01:37:52;;;;;;;7.00;1.92;;;5.90;99.90;;;;;;5050880;28;20043;-58
2021/05/07 01:40:19;;;;;;;13.52;2.03;;;5.80;99.90;;;;;;5050988;28;20074;-56
2021/05/07 01:42:46;;;;;;;8.88;2.13;;;5.80;99.90;;;;;;5050047;28;20029;-55
2021/05/07 01:45:14;;;;;;;7.75;2.28;;;5.80;99.90;;;;;;5051004;28;20428;-55
2021/05/07 01:47:40;;;;;;;7.65;2.10;;;5.80;99.90;;;;;;5050070;28;20055;-55
2021/05/07 01:50:08;;;;;;;7.10;1.60;;;5.90;99.90;;;;;;5050302;28;20021;-56
2021/05/07 01:52:34;;;;;;;10.45;2.10;;;5.80;99.90;;;;;;5050899;28;20032;-59
2021/05/07 01:55:02;;;;;;;8.60;1.80;;;5.80;99.90;;;;;;5049685;28;20029;-55
2021/05/07 01:57:31;;;;;;;6.00;1.90;;;5.70;99.90;;;;;;5050676;28;20032;-55
2021/05/07 01:59:58;;;;;;;6.30;1.98;;;5.70;99.90;;;;;;5050559;28;20045;-58
2021/05/07 02:02:24;;;;;;;7.50;1.75;;;5.70;99.90;;;;;;5051090;28;20044;-54
2021/05/07 02:04:50;;;;;;;7.88;2.00;;;5.70;99.90;;;;;;5050293;28;20040;-52
2021/05/07 02:07:16;;;;;;;7.45;2.00;;;5.60;99.90;;;;;;5050060;28;20064;-55
2021/05/07 02:09:42;;;;;;;7.18;2.13;;;5.60;99.90;;;;;;5050364;28;20079;-56
2021/05/07 02:12:08;;;;;;;7.65;2.00;;;5.50;99.90;;;;;;5049281;28;20025;-55
2021/05/07 02:14:34;;;;;;;6.90;1.92;;;5.50;99.90;;;;;;5050872;28;20028;-56
2021/05/07 02:17:00;;;;;;;8.43;1.70;;;5.40;99.90;;;;;;5050773;28;20109;-55
2021/05/07 02:19:26;;;;;;;5.28;1.80;;;5.40;99.90;;;;;;5050208;28;20071;-52
2021/05/07 02:21:52;;;;;;;6.32;2.03;;;5.30;99.90;;;;;;5049026;28;20033;-59
2021/05/07 02:24:18;;;;;;;8.18;1.90;;;5.30;99.90;;;;;;5049480;28;20037;-54
2021/05/07 02:26:44;;;;;;;7.63;2.17;;;5.40;99.90;;;;;;5050261;28;20021;-57
2021/05/07 02:29:09;;;;;;;6.45;1.90;;;5.30;99.90;;;;;;5050051;28;20478;-58
2021/05/07 02:31:35;;;;;;;7.95;2.20;;;5.30;99.90;;;;;;5050748;28;20025;-57
2021/05/07 02:34:01;;;;;;;5.70;2.03;;;5.30;99.90;;;;;;5050626;28;20029;-57
2021/05/07 02:36:27;;;;;;;6.47;1.70;;;5.30;99.90;;;;;;5053177;28;20044;-58
2021/05/07 02:38:53;;;;;;;6.45;1.95;;;5.30;99.90;;;;;;5053443;28;20029;-57
2021/05/07 02:41:19;;;;;;;6.75;1.90;;;5.40;99.90;;;;;;5054850;28;20029;-56
2021/05/07 02:43:44;;;;;;;4.20;1.83;;;5.30;99.90;;;;;;5054426;28;20028;-56
2021/05/07 02:46:13;;;;;;;6.68;1.73;;;5.30;99.90;;;;;;5054673;28;20024;-54
2021/05/07 02:48:39;;;;;;;4.95;1.80;;;5.30;99.90;;;;;;5053653;28;20075;-56
2021/05/07 02:51:05;;;;;;;5.10;1.85;;;5.40;99.90;;;;;;5053074;28;20040;-57
2021/05/07 02:53:30;;;;;;;14.70;1.98;;;5.50;99.90;;;;;;5053683;28;20024;-55
2021/05/07 02:55:56;;;;;;;12.85;2.28;;;5.50;99.90;;;;;;5054566;28;20033;-55
2021/05/07 02:58:22;;;;;;;7.45;1.75;;;5.50;99.90;;;;;;5053250;28;20028;-57
2021/05/07 03:00:47;;;;;;;6.82;1.80;;;5.40;99.90;;;;;;5054044;28;20410;-58
2021/05/07 03:03:13;;;;;;;6.47;1.65;;;5.40;99.90;;;;;;5053544;28;20413;-57
2021/05/07 03:05:39;;;;;;;5.78;1.98;;;5.40;99.90;;;;;;5053243;28;20033;-55
2021/05/07 03:08:05;;;;;;;6.15;1.50;;;5.40;99.90;;;;;;5053285;28;20052;-56
2021/05/07 03:10:31;;;;;;;6.80;1.70;;;5.40;99.90;;;;;;5053151;28;20036;-57
2021/05/07 03:12:57;;;;;;;6.60;2.05;;;5.40;99.90;;;;;;5052197;28;20036;-57
2021/05/07 03:15:22;;;;;;;6.70;1.50;;;5.50;99.90;;;;;;5053533;28;20434;-54
2021/05/07 03:17:51;;;;;;;9.65;2.15;;;5.50;99.90;;;;;;5053650;28;20025;-54
2021/05/07 03:20:17;;;;;;;6.35;2.13;;;5.50;99.90;;;;;;5054249;28;20029;-56
2021/05/07 03:22:42;;;;;;;7.55;2.00;;;5.50;99.90;;;;;;5053802;28;20052;-55
2021/05/07 03:25:08;;;;;;;11.18;2.17;;;5.40;99.90;;;;;;5052769;28;20027;-55
2021/05/07 03:27:34;;;;;;;5.88;1.77;;;5.40;99.90;;;;;;5053932;28;20086;-57
2021/05/07 03:30:00;;;;;;;5.38;1.90;;;5.40;99.90;;;;;;5054308;28;20033;-57
2021/05/07 03:32:25;;;;;;;4.70;1.67;;;5.40;99.90;;;;;;5053759;28;20048;-57
2021/05/07 03:34:51;;;;;;;7.88;2.05;;;5.30;99.90;;;;;;5053670;28;20037;-54
2021/05/07 03:37:17;;;;;;;6.20;2.35;;;5.20;99.90;;;;;;5053689;28;20029;-55
2021/05/07 03:39:44;;;;;;;6.85;1.90;;;5.20;99.90;;;;;;5053534;28;20033;-54
2021/05/07 03:42:10;;;;;;;7.40;2.05;;;5.20;99.90;;;;;;5053339;28;20044;-55
2021/05/07 03:44:36;;;;;;;13.18;2.13;;;5.10;99.90;;;;;;5053575;28;20040;-53
2021/05/07 03:47:01;;;;;;;4.88;2.10;;;5.10;99.90;;;;;;5052687;28;20033;-53
2021/05/07 03:49:28;;;;;;;7.25;2.10;;;5.00;99.90;;;;;;5053350;28;20045;-55
2021/05/07 03:51:54;;;;;;;6.43;2.08;;;5.00;99.90;;;;;;5053620;28;20967;-55
2021/05/07 03:54:20;;;;;;;20.42;3.40;;;5.00;99.90;;;;;;5053235;28;20114;-53
2021/05/07 03:56:45;;;;;;;8.80;2.67;;;5.00;99.90;;;;;;5053842;28;20035;-55
2021/05/07 03:59:11;;;;;;;11.20;2.60;;;5.10;99.90;;;;;;5052856;28;20033;-56
2021/05/07 04:01:37;;;;;;;15.18;3.55;;;5.10;99.90;;;;;;5053626;28;20028;-56
2021/05/07 04:04:06;;;;;;;8.90;3.00;;;5.20;99.90;;;;;;5052660;28;20131;-55
2021/05/07 04:06:31;;;;;;;14.15;3.33;;;5.10;99.90;;;;;;5053143;28;20047;-57
2021/05/07 04:09:05;;;;;;;8.57;3.10;;;5.10;99.90;;;;;;5052479;28;20041;-53
2021/05/07 04:11:53;;;;;;;13.77;3.22;;;5.10;99.90;;;;;;5053430;28;20033;-57
2021/05/07 04:14:16;;;;;;;9.38;3.45;;;5.00;99.90;;;;;;5053305;28;20103;-54
2021/05/07 04:16:42;;;;;;;10.50;3.08;;;5.00;99.90;;;;;;5052796;28;20494;-54
2021/05/07 04:19:08;;;;;;;18.08;3.67;;;5.00;99.90;;;;;;5052359;28;20040;-55
2021/05/07 04:21:34;;;;;;;13.27;3.90;;;5.00;99.90;;;;;;5053246;28;20040;-57
2021/05/07 04:23:59;;;;;;;19.85;3.97;;;4.90;99.90;;;;;;5052615;28;20487;-56
2021/05/07 04:26:25;;;;;;;20.52;4.13;;;5.00;99.90;;;;;;5052701;28;20032;-53
2021/05/07 04:28:51;;;;;;;14.60;3.60;;;5.00;99.90;;;;;;5051743;28;20041;-57
2021/05/07 04:31:16;;;;;;;13.38;3.38;;;5.10;99.90;;;;;;5052930;28;20025;-55
2021/05/07 04:33:42;;;;;;;10.02;3.20;;;5.20;99.90;;;;;;5052891;28;20032;-58
2021/05/07 04:36:08;;;;;;;22.70;4.18;;;5.10;99.90;;;;;;5061224;28;20055;-55
2021/05/07 04:38:34;;;;;;;21.73;4.10;;;5.10;99.90;;;;;;5065771;28;20028;-56
2021/05/07 04:41:00;;;;;;;16.17;3.70;;;5.10;99.90;;;;;;5052404;28;20383;-56
2021/05/07 04:43:25;;;;;;;16.92;3.50;;;5.10;99.90;;;;;;5052549;28;20029;-58
2021/05/07 04:45:51;;;;;;;7.78;2.65;;;5.20;99.90;;;;;;5051555;28;20033;-58
2021/05/07 04:48:17;;;;;;;16.60;3.53;;;5.20;99.90;;;;;;5052142;28;20071;-57
2021/05/07 04:50:44;;;;;;;14.52;3.78;;;5.20;99.90;;;;;;5053156;28;20036;-57
2021/05/07 04:53:10;;;;;;;15.68;2.97;;;5.20;99.90;;;;;;5051589;28;20032;-56
2021/05/07 04:55:36;;;;;;;17.50;3.60;;;5.20;99.90;;;;;;5052260;28;20540;-55
2021/05/07 04:58:02;;;;;;;16.40;3.60;;;5.20;99.90;;;;;;5051428;28;20055;-55
2021/05/07 05:00:28;;;;;;;17.92;3.70;;;5.10;99.90;;;;;;5051491;28;20033;-57
2021/05/07 05:02:53;;;;;;;14.43;3.25;;;5.10;99.90;;;;;;5050204;28;20040;-58
2021/05/07 05:05:20;;;;;;;21.63;3.65;;;5.20;99.90;;;;;;5051763;28;20025;-55
2021/05/07 05:07:51;;;;;;;10.07;2.85;;;5.20;99.90;;;;;;5052280;28;20041;-54
2021/05/07 05:10:17;;;;;;;22.52;3.42;;;5.20;99.90;;;;;;5051731;28;20806;-57
2021/05/07 05:12:43;;;;;;;17.90;3.78;;;5.20;99.90;;;;;;5052083;28;20021;-56
2021/05/07 05:15:09;;;;;;;19.77;3.97;;;5.20;99.90;;;;;;5051813;28;20025;-58
2021/05/07 05:17:35;;;;;;;20.65;4.32;;;5.10;99.90;;;;;;5051775;28;20044;-54
2021/05/07 05:20:01;;;;;;;23.80;4.05;;;5.20;99.90;;;;;;5051853;28;20033;-56
2021/05/07 05:22:26;;;;;;;16.13;3.67;;;5.20;99.90;;;;;;5051557;28;20079;-57
2021/05/07 05:24:52;;;;;;;26.10;4.38;;;5.20;99.90;;;;;;5049366;28;20124;-56
2021/05/07 05:27:18;;;;;;;21.48;3.83;;;5.30;99.90;;;;;;5051802;28;20040;-57
2021/05/07 05:29:43;;;;;;;21.67;4.18;;;5.30;99.90;;;;;;5050131;28;20033;-56
2021/05/07 05:32:09;;;;;;;18.33;3.90;;;5.30;99.90;;;;;;5051736;28;20203;-55
2021/05/07 05:34:35;;;;;;;22.17;4.22;;;5.40;99.90;;;;;;5052036;28;20047;-56
2021/05/07 05:37:00;;;;;;;19.23;4.07;;;5.40;99.90;;;;;;5050400;28;20506;-58
2021/05/07 05:39:27;;;;;;;14.52;3.80;;;5.40;99.90;;;;;;5050943;28;20036;-57
2021/05/07 05:41:52;;;;;;;21.75;5.07;;;5.40;99.90;;;;;;5051613;28;20478;-57
2021/05/07 05:44:18;;;;;;;21.05;3.83;;;5.50;99.90;;;;;;5051772;28;20025;-56
2021/05/07 05:46:43;;;;;;;20.50;5.38;;;5.50;99.90;;;;;;5051028;28;20120;-56
2021/05/07 05:49:09;;;;;;;26.38;4.65;;;5.60;99.90;;;;;;5051289;28;20060;-55
2021/05/07 05:51:35;;;;;;;20.98;4.75;;;5.60;99.90;;;;;;5050202;28;20033;-55
2021/05/07 05:54:01;;;;;;;23.58;3.67;;;5.60;99.90;;;;;;5051129;28;20060;-56
2021/05/07 05:56:26;;;;;;;22.73;3.83;;;5.70;99.90;;;;;;5051344;28;20051;-56
2021/05/07 05:58:52;;;;;;;16.65;3.67;;;5.80;99.90;;;;;;5051091;28;20032;-55
2021/05/07 06:01:18;;;;;;;32.42;4.72;;;5.80;99.90;;;;;;5050895;28;20063;-56
2021/05/07 06:03:43;;;;;;;24.50;3.83;;;5.80;99.90;;;;;;5051215;28;20033;-55
2021/05/07 06:06:09;;;;;;;24.83;4.20;;;5.90;99.90;;;;;;5050718;28;20052;-57
2021/05/07 06:08:35;;;;;;;23.92;4.25;;;5.90;99.90;;;;;;5050629;28;20033;-58
2021/05/07 06:11:00;;;;;;;31.00;4.70;;;6.00;99.90;;;;;;5050973;28;20060;-59
2021/05/07 06:13:26;;;;;;;24.00;4.60;;;6.10;99.90;;;;;;5050561;28;20021;-55
2021/05/07 06:15:52;;;;;;;23.83;4.72;;;6.10;99.90;;;;;;5050366;28;20025;-58
2021/05/07 06:18:17;;;;;;;17.55;4.00;;;6.10;99.90;;;;;;5049641;28;20048;-56
2021/05/07 06:20:43;;;;;;;23.42;4.43;;;6.20;99.90;;;;;;5050312;28;20025;-55
2021/05/07 06:23:09;;;;;;;29.58;4.07;;;6.20;99.90;;;;;;5050686;28;20076;-55
2021/05/07 06:25:35;;;;;;;27.08;4.28;;;6.30;99.90;;;;;;5049955;28;20064;-57
2021/05/07 06:28:00;;;;;;;24.35;4.78;;;6.30;99.90;;;;;;5036260;28;20041;-57
2021/05/07 06:30:27;;;;;;;32.33;5.15;;;6.30;99.90;;;;;;5050350;28;20533;-56
2021/05/07 06:32:53;;;;;;;29.23;4.82;;;6.50;99.90;;;;;;5050643;28;20032;-56
2021/05/07 06:35:18;;;;;;;24.70;4.07;;;6.60;99.90;;;;;;5050322;28;20029;-55
2021/05/07 06:37:44;;;;;;;20.30;4.03;;;6.70;99.90;;;;;;5049968;28;20033;-56
2021/05/07 06:40:11;;;;;;;23.48;4.65;;;6.70;99.90;;;;;;5050741;28;20507;-55
2021/05/07 06:42:37;;;;;;;19.17;4.22;;;6.90;99.90;;;;;;5049556;28;20037;-57
2021/05/07 06:45:05;;;;;;;28.95;4.70;;;7.10;99.90;;;;;;5050914;28;20463;-57
2021/05/07 06:47:31;;;;;;;25.75;4.82;;;7.40;99.90;;;;;;5050714;28;20506;-54
2021/05/07 06:49:57;;;;;;;35.38;5.05;;;7.70;99.90;;;;;;5050191;28;20033;-57
2021/05/07 06:52:23;;;;;;;30.00;4.50;;;8.00;99.90;;;;;;5050430;28;20029;-53
2021/05/07 06:54:49;;;;;;;46.92;6.35;;;8.40;99.90;;;;;;5048235;28;20529;-57
2021/05/07 06:57:15;;;;;;;38.72;4.43;;;8.50;99.90;;;;;;5048686;28;20037;-55
2021/05/07 06:59:43;;;;;;;25.17;4.78;;;8.80;99.90;;;;;;5049985;28;20029;-56
2021/05/07 07:02:09;;;;;;;29.23;4.43;;;8.90;99.90;;;;;;5047759;28;20039;-59
2021/05/07 07:04:45;;;;;;;15.10;3.47;;;9.00;99.90;;;;;;5049918;28;20052;-55
2021/05/07 07:07:18;;;;;;;26.55;4.78;;;9.10;99.90;;;;;;5049192;28;20471;-58
2021/05/07 07:09:44;;;;;;;31.23;4.35;;;9.40;99.90;;;;;;5049580;28;20037;-58
2021/05/07 07:12:10;;;;;;;31.98;4.38;;;9.40;99.90;;;;;;5047078;28;20029;-57
2021/05/07 07:14:38;;;;;;;17.25;3.90;;;9.30;99.90;;;;;;5044377;28;20037;-59
2021/05/07 07:17:05;;;;;;;32.85;4.93;;;9.50;99.90;;;;;;5045038;28;20399;-59
2021/05/07 07:19:32;;;;;;;24.40;4.80;;;9.50;99.90;;;;;;5049248;28;20040;-58
2021/05/07 07:21:57;;;;;;;26.75;4.60;;;9.50;99.90;;;;;;5051341;28;20040;-57
2021/05/07 07:24:23;;;;;;;29.40;4.28;;;9.70;99.90;;;;;;5052388;28;20029;-57
2021/05/07 07:26:49;;;;;;;23.17;4.07;;;9.70;99.90;;;;;;5053034;28;20140;-59
2021/05/07 07:29:14;;;;;;;23.73;3.88;;;9.80;99.90;;;;;;5053802;28;20095;-56
2021/05/07 07:31:40;;;;;;;29.80;4.63;;;10.10;99.90;;;;;;5050622;28;20033;-57
2021/05/07 07:34:06;;;;;;;37.67;4.50;;;10.20;99.90;;;;;;5047946;28;20029;-58
2021/05/07 07:36:31;;;;;;;24.65;4.32;;;10.30;99.90;;;;;;5051065;28;20067;-57
2021/05/07 07:38:57;;;;;;;29.67;4.07;;;10.60;99.90;;;;;;5053876;28;20025;-58
2021/05/07 07:41:23;;;;;;;17.65;3.75;;;10.60;99.90;;;;;;5053535;28;20033;-56
2021/05/07 07:43:49;;;;;;;32.47;5.15;;;10.80;99.90;;;;;;5054055;28;20021;-57
2021/05/07 07:46:15;;;;;;;29.98;5.38;;;11.10;99.90;;;;;;5051841;28;20402;-57
2021/05/07 07:48:41;;;;;;;29.73;4.90;;;11.20;99.90;;;;;;5053093;28;20049;-57
2021/05/07 07:51:07;;;;;;;23.02;4.50;;;11.20;99.90;;;;;;5052708;28;20386;-59
2021/05/07 07:53:32;;;;;;;25.35;5.53;;;11.50;99.90;;;;;;5060274;28;20028;-58
2021/05/07 07:55:58;;;;;;;19.35;3.50;;;11.70;99.90;;;;;;5061753;28;20032;-58
2021/05/07 07:58:25;;;;;;;13.98;3.50;;;11.70;99.90;;;;;;5052057;28;20033;-57
2021/05/07 08:00:51;;;;;;;19.42;3.88;;;11.80;99.90;;;;;;5052870;28;20033;-59
2021/05/07 08:03:17;;;;;;;24.10;4.07;;;12.00;99.90;;;;;;5052449;28;20036;-58
2021/05/07 08:05:43;;;;;;;21.30;4.05;;;11.70;99.90;;;;;;5052862;28;20386;-59
2021/05/07 08:08:09;;;;;;;15.27;3.45;;;11.60;99.90;;;;;;5052488;28;20044;-58
2021/05/07 08:10:35;;;;;;;17.63;4.00;;;11.70;99.90;;;;;;5053774;28;20021;-56
2021/05/07 08:13:00;;;;;;;16.27;3.88;;;12.00;99.90;;;;;;5052660;28;20070;-57
2021/05/07 08:15:27;;;;;;;24.23;4.10;;;11.90;99.90;;;;;;5053270;28;20059;-57
2021/05/07 08:17:54;;;;;;;20.13;4.18;;;11.80;99.90;;;;;;5052219;28;20108;-59
2021/05/07 08:20:21;;;;;;;11.80;3.13;;;11.50;99.90;;;;;;5052666;28;20033;-58
2021/05/07 08:22:47;;;;;;;26.77;3.85;;;11.30;99.90;;;;;;5052114;28;20045;-54
2021/05/07 08:25:13;;;;;;;25.95;4.20;;;11.20;99.90;;;;;;5051446;28;20028;-56
2021/05/07 08:27:40;;;;;;;17.00;3.88;;;11.20;99.90;;;;;;5052874;28;20049;-56
2021/05/07 08:30:07;;;;;;;28.10;4.70;;;11.00;99.90;;;;;;5052714;28;20041;-55
2021/05/07 08:32:33;;;;;;;12.93;3.63;;;10.90;99.90;;;;;;5052292;28;20055;-57
2021/05/07 08:35:00;;;;;;;18.35;3.10;;;10.80;99.90;;;;;;5051776;28;20037;-55
2021/05/07 08:37:26;;;;;;;14.98;3.53;;;10.80;99.90;;;;;;5051442;28;20033;-55
2021/05/07 08:39:52;;;;;;;23.25;4.05;;;10.80;99.90;;;;;;5052633;28;20040;-54
2021/05/07 08:42:20;;;;;;;16.33;3.33;;;11.00;99.90;;;;;;5053135;28;20029;-56
2021/05/07 08:44:47;;;;;;;20.52;3.53;;;11.20;99.90;;;;;;5052162;28;20036;-55
2021/05/07 08:47:22;;;;;;;20.17;3.33;;;11.40;99.90;;;;;;5052072;28;20390;-56
2021/05/07 08:49:50;;;;;;;21.13;5.05;;;11.80;99.90;;;;;;5051909;28;20032;-57
2021/05/07 08:52:18;;;;;;;20.38;3.55;;;12.30;99.90;;;;;;5051540;28;20041;-58
2021/05/07 08:54:43;;;;;;;17.48;4.15;;;12.40;99.90;;;;;;5050168;28;20584;-57
2021/05/07 08:57:09;;;;;;;13.20;3.40;;;12.10;99.90;;;;;;5050555;28;20029;-55
2021/05/07 08:59:36;;;;;;;11.32;3.30;;;11.80;99.90;;;;;;5052034;28;20550;-57
2021/05/07 09:02:02;;;;;;;21.25;3.67;;;11.70;99.90;;;;;;5050904;28;20024;-56
2021/05/07 09:04:27;;;;;;;21.35;3.83;;;11.50;99.90;;;;;;5048929;28;20029;-55
2021/05/07 09:06:54;;;;;;;19.52;3.67;;;11.90;99.90;;;;;;5051191;28;20037;-55
2021/05/07 09:09:28;;;;;;;20.45;4.45;;;11.80;99.90;;;;;;5051104;28;20037;-57
2021/05/07 09:11:55;;;;;;;18.60;4.38;;;12.10;99.90;;;;;;5051611;28;20071;-57
2021/05/07 09:14:22;;;;;;;18.67;3.45;;;12.60;99.90;;;;;;5051494;28;20037;-57
2021/05/07 09:16:56;;;;;;;8.52;2.65;;;13.20;99.90;;;;;;5051642;28;20074;-57
2021/05/07 09:19:23;;;;;;;19.10;3.42;;;12.90;99.90;;;;;;5051450;28;20063;-54
2021/05/07 09:21:49;;;;;;;21.08;3.17;;;12.80;99.90;;;;;;5052208;28;20402;-57
2021/05/07 09:24:17;;;;;;;22.70;3.70;;;12.60;99.90;;;;;;5051609;28;20029;-54
2021/05/07 09:26:47;;;;;;;14.90;3.30;;;12.60;99.90;;;;;;5050734;28;20115;-55
2021/05/07 09:29:24;;;;;;;12.50;3.17;;;13.00;99.90;;;;;;5051811;28;20045;-57
2021/05/07 09:31:51;;;;;;;12.73;2.97;;;12.90;99.90;;;;;;5052049;28;20032;-57
2021/05/07 09:34:19;;;;;;;13.02;3.08;;;12.60;99.90;;;;;;5051744;28;20029;-56
2021/05/07 09:36:45;;;;;;;17.52;3.20;;;12.90;99.90;;;;;;5052076;28;20025;-57
2021/05/07 09:39:22;;;;;;;15.05;2.92;;;13.00;99.90;;;;;;5051824;28;20390;-57
2021/05/07 09:41:50;;;;;;;20.23;2.90;;;13.00;99.90;;;;;;5051804;28;20056;-57
2021/05/07 09:44:18;;;;;;;11.60;2.58;;;12.70;99.90;;;;;;5051349;28;20041;-56
2021/05/07 09:46:45;;;;;;;13.27;2.85;;;12.50;99.90;;;;;;5051477;28;20033;-54
2021/05/07 09:49:22;;;;;;;16.67;3.03;;;12.60;99.90;;;;;;5051547;28;20036;-56
2021/05/07 09:51:47;;;;;;;12.48;3.20;;;12.60;99.90;;;;;;5051893;28;20112;-53
2021/05/07 09:54:13;;;;;;;16.73;3.20;;;12.90;99.90;;;;;;5051803;28;20108;-57
2021/05/07 09:56:40;;;;;;;13.98;2.90;;;13.30;99.90;;;;;;5051715;28;20064;-56
2021/05/07 09:59:08;;;;;;;26.35;3.40;;;13.70;99.90;;;;;;5051795;28;20033;-56
2021/05/07 10:01:34;;;;;;;18.33;3.17;;;13.80;99.90;;;;;;5051758;28;20031;-56
2021/05/07 10:04:01;;;;;;;8.82;2.70;;;14.10;99.90;;;;;;5051565;28;20076;-54
2021/05/07 10:06:27;;;;;;;7.47;2.42;;;13.90;99.90;;;;;;5051353;28;20498;-56
2021/05/07 10:08:53;;;;;;;11.18;2.10;;;13.80;99.90;;;;;;5051462;28;20486;-57
2021/05/07 10:11:22;;;;;;;10.80;2.70;;;13.90;99.90;;;;;;5051472;28;20029;-57
2021/05/07 10:13:50;;;;;;;15.20;2.72;;;14.20;99.90;;;;;;5051506;28;20100;-54
2021/05/07 10:16:27;;;;;;;8.98;2.42;;;14.40;99.90;;;;;;5051314;28;20471;-55
2021/05/07 10:19:00;;;;;;;13.80;3.00;;;14.40;99.90;;;;;;5051374;28;20449;-57
2021/05/07 10:21:43;;;;;;;13.07;3.25;;;14.20;99.90;;;;;;5051108;28;20024;-56
2021/05/07 10:24:15;;;;;;;11.38;2.33;;;14.60;99.90;;;;;;5051153;28;20032;-56
2021/05/07 10:26:42;;;;;;;7.57;2.10;;;14.80;99.90;;;;;;5051158;28;20091;-56
2021/05/07 10:29:23;;;;;;;9.77;2.15;;;14.70;99.90;;;;;;5050376;28;20116;-56
2021/05/07 10:31:53;;;;;;;8.25;2.13;;;14.30;99.90;;;;;;5051054;28;20463;-58
2021/05/07 10:34:21;;;;;;;12.10;2.22;;;14.30;99.90;;;;;;5051235;28;20025;-55
2021/05/07 10:36:52;;;;;;;7.35;2.03;;;14.60;99.90;;;;;;5051181;28;20033;-57
2021/05/07 10:39:31;;;;;;;7.65;1.80;;;14.70;99.90;;;;;;5050341;28;20112;-53
2021/05/07 10:41:59;;;;;;;6.53;1.70;;;15.00;97.30;;;;;;5051051;28;20029;-57
2021/05/07 10:44:27;;;;;;;5.35;2.00;;;15.00;95.90;;;;;;5051333;28;20041;-56
2021/05/07 10:47:07;;;;;;;9.80;2.35;;;15.10;97.40;;;;;;5050282;28;20534;-56
2021/05/07 10:49:37;;;;;;;9.05;2.40;;;14.90;98.40;;;;;;5051029;28;20037;-56
2021/05/07 10:52:06;;;;;;;6.40;2.15;;;14.50;98.30;;;;;;5050839;28;20065;-57
2021/05/07 10:54:38;;;;;;;7.22;2.35;;;14.70;97.20;;;;;;5050434;28;20041;-56
2021/05/07 10:57:04;;;;;;;6.82;2.58;;;14.80;97.40;;;;;;5052989;28;20104;-56
2021/05/07 10:59:30;;;;;;;11.50;2.50;;;14.90;96.70;;;;;;5054877;28;20110;-54
2021/05/07 11:02:00;;;;;;;10.55;2.78;;;15.00;96.50;;;;;;5054983;28;20109;-55
2021/05/07 11:04:27;;;;;;;11.43;3.72;;;15.20;97.30;;;;;;5054925;28;20017;-55
2021/05/07 11:07:03;;;;;;;10.85;2.80;;;15.40;96.60;;;;;;5054954;28;20123;-57
2021/05/07 11:09:29;;;;;;;9.35;2.40;;;15.40;96.10;;;;;;5054600;28;20068;-55
2021/05/07 11:12:02;;;;;;;11.48;2.75;;;15.40;94.70;;;;;;5054682;28;20534;-54
2021/05/07 11:14:28;;;;;;;7.03;2.30;;;15.30;94.80;;;;;;5054561;28;20021;-55
2021/05/07 11:16:54;;;;;;;9.73;3.00;;;15.30;92.50;;;;;;5052735;28;20075;-55
2021/05/07 11:19:26;;;;;;;7.05;2.60;;;15.30;93.10;;;;;;5053922;28;20061;-58
2021/05/07 11:21:56;;;;;;;12.98;2.92;;;15.20;94.40;;;;;;5053878;28;20551;-56
2021/05/07 11:24:28;;;;;;;10.70;3.03;;;15.10;93.50;;;;;;5052951;28;20052;-56
2021/05/07 11:26:54;;;;;;;6.55;2.70;;;15.00;94.90;;;;;;5054355;28;20029;-55
2021/05/07 11:29:33;;;;;;;12.00;3.00;;;15.20;94.40;;;;;;5053737;28;20133;-56
2021/05/07 11:32:18;;;;;;;11.20;2.80;;;15.40;94.00;;;;;;5053888;28;20475;-57
2021/05/07 11:34:55;;;;;;;5.60;2.47;;;15.40;92.50;;;;;;5053956;28;20044;-56
2021/05/07 11:37:21;;;;;;;7.78;2.50;;;15.40;92.20;;;;;;5053731;28;20036;-53
2021/05/07 11:39:57;;;;;;;7.57;2.28;;;15.70;92.10;;;;;;5052381;28;20471;-56
2021/05/07 11:42:50;;;;;;;11.00;3.35;;;15.80;91.50;;;;;;5053801;28;20183;-57
2021/05/07 11:45:22;;;;;;;18.05;5.15;;;15.80;92.00;;;;;;5053240;28;20536;-57
2021/05/07 11:47:48;;;;;;;9.27;3.10;;;15.40;91.50;;;;;;5053488;28;20068;-55
2021/05/07 11:50:16;;;;;;;5.63;2.05;;;15.60;92.40;;;;;;5053444;28;20107;-57
2021/05/07 11:52:44;;;;;;;7.25;2.35;;;15.50;90.90;;;;;;5053442;28;20048;-55
2021/05/07 11:55:11;;;;;;;6.57;1.92;;;15.70;91.00;;;;;;5053301;28;20395;-56
2021/05/07 11:57:37;;;;;;;4.35;1.88;;;15.70;91.10;;;;;;5053352;28;20029;-59
2021/05/07 12:00:07;;;;;;;6.07;2.10;;;15.80;91.70;;;;;;5053111;28;20029;-57
2021/05/07 12:02:33;;;;;;;8.05;2.42;;;15.90;91.60;;;;;;5053417;28;20125;-57
2021/05/07 12:04:59;;;;;;;16.60;3.40;;;15.70;90.90;;;;;;5053379;28;20104;-55
2021/05/07 12:07:33;;;;;;;6.20;2.25;;;15.60;92.50;;;;;;5052610;28;20033;-57
2021/05/07 12:10:00;;;;;;;7.45;1.92;;;15.60;91.50;;;;;;5052833;28;20040;-58
2021/05/07 12:12:28;;;;;;;7.60;2.60;;;15.30;91.90;;;;;;5053060;28;20470;-57
2021/05/07 12:15:11;;;;;;;8.15;2.28;;;15.20;92.80;;;;;;5053085;28;20060;-55
2021/05/07 12:17:42;;;;;;;11.23;2.20;;;15.20;92.50;;;;;;5052981;28;20036;-56
2021/05/07 12:20:13;;;;;;;7.13;2.60;;;15.30;92.50;;;;;;5052772;28;20033;-57
2021/05/07 12:22:39;;;;;;;7.45;2.00;;;15.30;92.60;;;;;;5052632;28;20056;-55
2021/05/07 12:25:13;;;;;;;8.35;2.10;;;15.30;92.60;;;;;;5052694;28;20025;-58
2021/05/07 12:27:40;;;;;;;9.77;2.50;;;15.30;92.60;;;;;;5052557;28;20033;-56
2021/05/07 12:30:31;;;;;;;8.15;2.00;;;15.60;92.70;;;;;;5052607;28;20033;-56
2021/05/07 12:33:05;;;;;;;10.35;3.10;;;15.80;92.10;;;;;;5032517;28;20033;-57
2021/05/07 12:35:51;;;;;;;8.63;2.30;;;15.80;92.30;;;;;;5032899;28;20086;-55
2021/05/07 12:40:56;;;;;;;7.35;2.95;;;15.00;92.50;;;;;;5052420;28;20128;-56
2021/05/07 12:43:23;;;;;;;10.25;4.10;;;15.00;93.00;;;;;;5052312;28;20063;-56
2021/05/07 12:45:50;;;;;;;7.60;3.10;;;14.80;93.40;;;;;;5051465;28;20052;-58
2021/05/07 12:48:16;;;;;;;9.00;3.03;;;14.70;93.30;;;;;;5052453;28;20032;-55
2021/05/07 12:50:43;;;;;;;8.85;2.35;;;14.60;93.40;;;;;;5052541;28;20048;-56